Time;durP1;ratioP1;P1;durP2;ratioP2;P2;SDS_P1;SDS_P2;PMS_P1;PMS_P2;Temp;Humidity;BMP_temperature;BMP_pressure;BME280_temperature;BME280_humidity;BME280_pressure;Samples;Min_cycle;Max_cycle;Signal;HPM_P1;HPM_P2
2023/02/10 00:01:20;;;;;;;41.63;20.42;;;;;;;5.86;53.65;103500.53;4835682;29;124871;-69
2023/02/10 00:03:48;;;;;;;46.03;20.27;;;;;;;5.84;53.58;103496.97;4832896;29;114003;-69
2023/02/10 00:06:17;;;;;;;42.53;21.38;;;;;;;5.83;54.00;103503.09;4831249;29;114092;-69
2023/02/10 00:08:49;;;;;;;42.78;21.15;;;;;;;5.78;54.02;103491.59;4832227;29;124155;-69
2023/02/10 00:11:17;;;;;;;39.45;20.67;;;;;;;5.76;53.81;103499.44;4834093;29;123704;-70
2023/02/10 00:13:45;;;;;;;45.88;21.17;;;;;;;5.74;54.23;103495.03;4816358;29;114352;-69
2023/02/10 00:16:14;;;;;;;43.20;20.98;;;;;;;5.71;54.18;103503.75;4833608;29;114016;-72
2023/02/10 00:18:42;;;;;;;41.92;20.80;;;;;;;5.71;54.28;103505.47;4833480;29;124193;-69
2023/02/10 00:21:13;;;;;;;42.38;21.00;;;;;;;5.70;54.04;103503.72;4830227;29;124039;-69
2023/02/10 00:23:41;;;;;;;44.78;22.60;;;;;;;5.69;53.97;103512.47;4833213;29;114173;-69
2023/02/10 00:26:11;;;;;;;47.53;21.50;;;;;;;5.66;54.08;103508.91;4832258;29;114282;-69
2023/02/10 00:28:42;;;;;;;48.67;22.17;;;;;;;5.65;54.20;103512.41;4819498;29;123465;-69
2023/02/10 00:31:14;;;;;;;43.80;21.42;;;;;;;5.63;54.24;103514.13;4837727;29;123937;-71
2023/02/10 00:33:41;;;;;;;46.85;21.45;;;;;;;5.62;54.33;103507.09;4836072;29;114375;-69
2023/02/10 00:36:11;;;;;;;43.05;21.42;;;;;;;5.61;54.33;103514.94;4820422;29;114901;-69
2023/02/10 00:38:40;;;;;;;42.53;20.67;;;;;;;5.60;54.43;103519.31;4848433;28;123069;-69
2023/02/10 00:41:16;;;;;;;42.97;21.58;;;;;;;5.58;54.47;103515.78;4849734;28;123202;-69
2023/02/10 00:43:44;;;;;;;41.35;20.92;;;;;;;5.56;54.52;103517.50;4831752;29;114339;-69
2023/02/10 00:46:13;;;;;;;41.80;20.45;;;;;;;5.56;54.40;103522.75;4814924;29;113036;-70
2023/02/10 00:48:43;;;;;;;46.33;21.90;;;;;;;5.53;54.31;103522.69;4817399;29;122973;-69
2023/02/10 00:51:11;;;;;;;46.10;21.40;;;;;;;5.51;54.66;103519.16;4817193;29;122864;-69
2023/02/10 00:53:40;;;;;;;45.08;21.02;;;;;;;5.50;54.47;103517.41;4838380;29;97242;-69
2023/02/10 00:56:08;;;;;;;48.50;22.63;;;;;;;5.47;54.77;103522.59;4834381;29;114372;-68
2023/02/10 00:58:36;;;;;;;44.55;21.98;;;;;;;5.45;54.60;103516.41;4848640;28;123041;-68
2023/02/10 01:01:04;;;;;;;42.10;21.30;;;;;;;5.43;54.53;103526.00;4834775;29;124644;-69
2023/02/10 01:03:32;;;;;;;44.40;21.60;;;;;;;5.43;54.64;103526.00;4835768;29;113167;-68
2023/02/10 01:06:00;;;;;;;42.70;21.55;;;;;;;5.41;55.04;103523.34;4840077;29;114989;-68
2023/02/10 01:08:28;;;;;;;43.67;21.27;;;;;;;5.40;54.88;103526.81;4822442;29;123544;-68
2023/02/10 01:11:03;;;;;;;44.65;21.73;;;;;;;5.40;55.12;103525.94;4832229;29;123979;-69
2023/02/10 01:13:33;;;;;;;50.45;23.73;;;;;;;5.38;55.06;103530.28;4833460;29;114782;-69
2023/02/10 01:16:04;;;;;;;50.80;23.17;;;;;;;5.36;54.85;103529.38;4834397;29;113957;-69
2023/02/10 01:18:32;;;;;;;48.83;24.05;;;;;;;5.35;54.92;103543.34;4837416;29;123241;-69
2023/02/10 01:21:09;;;;;;;53.40;24.85;;;;;;;5.32;55.37;103533.66;4830225;29;125243;-69
2023/02/10 01:23:36;;;;;;;49.58;23.60;;;;;;;5.31;55.27;103536.25;4834237;29;114474;-69
2023/02/10 01:26:13;;;;;;;49.53;23.45;;;;;;;5.31;55.11;103546.78;4832478;29;115602;-69
2023/02/10 01:28:41;;;;;;;49.20;24.48;;;;;;;5.31;55.45;103552.03;4829360;29;124228;-69
2023/02/10 01:31:15;;;;;;;45.53;23.88;;;;;;;5.30;55.55;103545.00;4834698;29;125180;-69
2023/02/10 01:33:42;;;;;;;47.42;23.40;;;;;;;5.28;55.37;103546.72;4827936;29;113906;-69
2023/02/10 01:36:14;;;;;;;43.40;22.95;;;;;;;5.26;55.56;103544.94;4817276;29;113573;-69
2023/02/10 01:38:41;;;;;;;49.13;23.52;;;;;;;5.25;55.38;103543.19;4832342;29;123708;-71
2023/02/10 01:41:09;;;;;;;48.08;23.60;;;;;;;5.23;55.69;103539.59;4840246;29;123259;-70
2023/02/10 01:43:56;;;;;;;49.63;24.00;;;;;;;5.22;55.67;103545.75;4829540;29;114238;-70
2023/02/10 01:46:28;;;;;;;42.80;22.33;;;;;;;5.21;55.59;103537.81;4833101;29;114585;-69
2023/02/10 01:48:58;;;;;;;50.38;24.17;;;;;;;5.21;55.60;103546.56;4835419;29;123042;-70
2023/02/10 01:51:38;;;;;;;49.38;24.20;;;;;;;5.19;55.68;103543.03;4834694;29;122296;-70
2023/02/10 01:54:09;;;;;;;52.47;24.75;;;;;;;5.18;55.91;103536.03;4832540;29;114256;-70
2023/02/10 01:56:37;;;;;;;56.85;25.02;;;;;;;5.18;55.86;103538.66;4829755;29;113353;-69
2023/02/10 01:59:06;;;;;;;50.05;23.85;;;;;;;5.17;56.08;103534.22;4832901;29;124189;-70
2023/02/10 02:01:34;;;;;;;51.85;23.70;;;;;;;5.16;56.12;103535.09;4827926;29;122713;-71
2023/02/10 02:04:01;;;;;;;47.60;23.52;;;;;;;5.16;55.85;103537.75;4836118;29;114383;-70
2023/02/10 02:06:30;;;;;;;46.97;22.85;;;;;;;5.15;55.88;103528.06;4835646;29;114088;-71
2023/02/10 02:08:58;;;;;;;48.45;22.90;;;;;;;5.16;55.85;103528.94;4835350;29;124158;-70
2023/02/10 02:11:36;;;;;;;46.55;23.52;;;;;;;5.16;56.29;103527.22;4839087;29;123130;-70
2023/02/10 02:14:28;;;;;;;49.33;22.50;;;;;;;5.17;56.00;103523.72;4835313;29;114261;-71
2023/02/10 02:17:12;;;;;;;50.85;23.10;;;;;;;5.15;56.16;103520.19;4836257;29;114811;-71
2023/02/10 02:23:00;;;;;;;48.03;23.40;;;;;;;5.13;56.23;103521.91;4838600;29;122900;-71
2023/02/10 02:25:45;;;;;;;45.15;23.02;;;;;;;5.10;56.39;103527.06;4836617;28;112616;-71
2023/02/10 02:28:21;;;;;;;51.97;23.48;;;;;;;5.11;56.03;103523.59;4835297;29;112947;-71
2023/02/10 02:31:08;;;;;;;47.35;23.35;;;;;;;5.10;56.02;103527.06;4831182;29;124224;-71
2023/02/10 02:33:49;;;;;;;47.03;22.48;;;;;;;5.11;56.06;103534.13;4831121;29;124800;-70
2023/02/10 02:36:23;;;;;;;40.33;21.83;;;;;;;5.09;56.24;103530.56;4833409;29;112954;-71
2023/02/10 02:38:50;;;;;;;50.15;23.23;;;;;;;5.09;56.15;103535.81;4835968;29;114357;-70
2023/02/10 02:41:23;;;;;;;49.08;23.00;;;;;;;5.09;56.17;103537.56;4837272;29;123884;-70
2023/02/10 02:43:51;;;;;;;47.22;22.77;;;;;;;5.09;56.12;103540.22;4835127;29;123983;-71
2023/02/10 02:46:27;;;;;;;45.42;22.33;;;;;;;5.07;56.13;103532.28;4839784;29;113432;-71
2023/02/10 02:49:17;;;;;;;48.88;23.55;;;;;;;5.07;56.27;103527.03;4832387;29;112916;-71
2023/02/10 02:51:50;;;;;;;55.33;22.90;;;;;;;5.07;56.00;103529.66;4832764;29;124411;-72
2023/02/10 02:54:28;;;;;;;47.75;23.67;;;;;;;5.05;56.35;103528.75;4816246;29;122897;-70
2023/02/10 02:57:15;;;;;;;49.78;22.88;;;;;;;5.05;56.53;103526.13;4834466;29;114145;-69
2023/02/10 02:59:47;;;;;;;49.05;22.13;;;;;;;5.04;56.13;103533.09;4837946;29;113388;-69
2023/02/10 03:02:19;;;;;;;49.28;24.58;;;;;;;5.05;56.38;103534.00;4832150;29;122876;-69
2023/02/10 03:04:48;;;;;;;50.28;23.38;;;;;;;5.05;56.13;103534.00;4833321;29;123087;-69
2023/02/10 03:07:15;;;;;;;46.30;22.27;;;;;;;5.04;56.24;103532.22;4828539;29;115459;-69
2023/02/10 03:09:44;;;;;;;46.88;22.90;;;;;;;5.03;56.26;103540.97;4821663;29;114942;-69
2023/02/10 03:12:12;;;;;;;48.88;23.20;;;;;;;5.03;56.33;103546.22;4833802;29;123937;-70
2023/02/10 03:14:39;;;;;;;45.30;22.52;;;;;;;5.03;56.71;103551.47;4829415;29;123909;-69
2023/02/10 03:17:07;;;;;;;48.42;22.80;;;;;;;5.03;56.31;103556.72;4823287;29;114638;-69
2023/02/10 03:19:34;;;;;;;51.70;23.23;;;;;;;5.01;56.57;103563.66;4833463;29;114204;-69
2023/02/10 03:22:02;;;;;;;47.45;22.38;;;;;;;5.00;56.55;103560.13;4834397;29;124167;-69
2023/02/10 03:24:29;;;;;;;45.92;22.35;;;;;;;4.99;56.32;103566.25;4808531;29;123081;-69
2023/02/10 03:26:56;;;;;;;47.85;23.40;;;;;;;4.98;56.38;103563.59;4836374;29;114593;-69
2023/02/10 03:29:24;;;;;;;48.08;23.27;;;;;;;4.96;56.35;103575.81;4842146;29;113235;-69
2023/02/10 03:31:51;;;;;;;51.85;24.02;;;;;;;4.95;56.55;103569.66;4832314;29;124059;-69
2023/02/10 03:34:19;;;;;;;50.00;22.73;;;;;;;4.93;56.31;103570.47;4826067;29;122406;-69
2023/02/10 03:36:46;;;;;;;50.15;22.60;;;;;;;4.91;56.59;103572.19;4828468;29;114324;-69
2023/02/10 03:39:13;;;;;;;47.97;23.17;;;;;;;4.87;56.66;103569.47;4834287;29;114090;-69
2023/02/10 03:41:40;;;;;;;51.97;23.33;;;;;;;4.86;56.61;103567.72;4832116;29;123964;-69
2023/02/10 03:44:08;;;;;;;52.25;24.27;;;;;;;4.85;56.91;103571.19;4837586;29;124056;-70
2023/02/10 03:46:36;;;;;;;46.63;23.23;;;;;;;4.83;56.39;103575.53;4832250;29;114184;-69
2023/02/10 03:49:04;;;;;;;47.63;23.02;;;;;;;4.81;56.90;103577.22;4834364;29;114114;-69
2023/02/10 03:51:32;;;;;;;44.58;23.42;;;;;;;4.80;56.32;103575.47;4833419;29;123400;-69
2023/02/10 03:53:59;;;;;;;48.00;23.38;;;;;;;4.79;56.47;103573.69;4835272;29;124104;-69
2023/02/10 03:56:26;;;;;;;47.10;23.60;;;;;;;4.78;56.54;103577.13;4834340;29;114422;-69
2023/02/10 03:58:54;;;;;;;48.25;23.42;;;;;;;4.77;56.51;103564.88;4834738;29;114950;-69
2023/02/10 04:01:21;;;;;;;47.95;23.02;;;;;;;4.77;56.61;103569.25;4834218;29;124439;-69
2023/02/10 04:03:48;;;;;;;48.50;22.90;;;;;;;4.75;56.46;103566.59;4831733;29;123263;-69
2023/02/10 04:06:15;;;;;;;49.60;23.77;;;;;;;4.75;56.83;103571.84;4832362;29;114166;-69
2023/02/10 04:08:43;;;;;;;48.05;22.80;;;;;;;4.73;57.03;103568.28;4837649;29;114124;-69
2023/02/10 04:11:11;;;;;;;47.15;23.85;;;;;;;4.74;56.76;103564.81;4836667;29;124899;-69
2023/02/10 04:13:39;;;;;;;54.83;23.98;;;;;;;4.73;56.85;103567.38;4831473;29;124209;-69
2023/02/10 04:16:09;;;;;;;50.22;24.48;;;;;;;4.72;56.97;103566.50;4830894;29;114649;-70
2023/02/10 04:18:38;;;;;;;49.53;22.88;;;;;;;4.72;57.06;103561.25;4828640;29;114055;-70
2023/02/10 04:21:07;;;;;;;43.78;23.17;;;;;;;4.71;56.88;103564.75;4835414;29;124045;-69
2023/02/10 04:23:35;;;;;;;47.40;23.55;;;;;;;4.70;56.75;103562.97;4822109;29;123748;-70
2023/02/10 04:26:03;;;;;;;49.58;23.45;;;;;;;4.70;56.77;103562.09;4831887;29;114240;-70
2023/02/10 04:28:30;;;;;;;52.13;24.45;;;;;;;4.69;56.87;103571.72;4836507;29;114054;-71
2023/02/10 04:30:59;;;;;;;53.17;24.27;;;;;;;4.68;56.84;103564.66;4828004;29;123312;-70
2023/02/10 04:33:27;;;;;;;51.88;23.85;;;;;;;4.68;57.11;103564.66;4831885;29;124151;-70
2023/02/10 04:35:55;;;;;;;50.33;24.02;;;;;;;4.67;57.05;103573.38;4832002;29;114659;-69
2023/02/10 04:38:23;;;;;;;44.42;23.33;;;;;;;4.66;56.91;103571.63;4835927;29;114123;-70
2023/02/10 04:40:51;;;;;;;53.50;24.15;;;;;;;4.64;56.86;103568.06;4834481;29;124356;-69
2023/02/10 04:43:18;;;;;;;49.45;23.85;;;;;;;4.64;57.20;103560.19;4828821;29;124516;-70
2023/02/10 04:45:46;;;;;;;48.20;24.23;;;;;;;4.63;56.91;103558.41;4833053;29;115275;-69
2023/02/10 04:48:13;;;;;;;53.03;24.30;;;;;;;4.63;56.95;103566.28;4830586;29;115604;-69
2023/02/10 04:50:41;;;;;;;54.50;23.60;;;;;;;4.61;57.08;103560.13;4834838;29;124135;-69
2023/02/10 04:53:09;;;;;;;52.65;24.27;;;;;;;4.60;57.10;103571.47;4833322;29;122866;-69
2023/02/10 04:55:36;;;;;;;54.97;24.42;;;;;;;4.59;57.01;103574.94;4829729;29;114600;-69
2023/02/10 04:58:04;;;;;;;51.55;25.52;;;;;;;4.57;57.28;103581.91;4851529;28;112979;-69
2023/02/10 05:00:31;;;;;;;53.45;24.70;;;;;;;4.57;57.10;103576.66;4831700;29;124359;-68
2023/02/10 05:02:58;;;;;;;52.35;26.00;;;;;;;4.56;56.99;103574.84;4833167;29;125438;-69
2023/02/10 05:05:27;;;;;;;50.35;25.33;;;;;;;4.56;56.98;103580.09;4833378;29;112888;-68
2023/02/10 05:07:55;;;;;;;53.95;24.08;;;;;;;4.55;57.06;103573.09;4834202;29;113897;-69
2023/02/10 05:10:22;;;;;;;54.30;24.90;;;;;;;4.54;56.99;103587.06;4829085;29;124438;-70
2023/02/10 05:12:49;;;;;;;51.20;24.80;;;;;;;4.53;57.07;103582.69;4835748;29;124434;-70
2023/02/10 05:15:17;;;;;;;51.80;24.80;;;;;;;4.53;56.98;103590.56;4821252;29;113819;-69
2023/02/10 05:17:44;;;;;;;51.20;24.48;;;;;;;4.52;57.35;103596.63;4832590;29;114311;-72
2023/02/10 05:20:11;;;;;;;56.50;24.70;;;;;;;4.51;57.29;103598.38;4829515;29;124178;-69
2023/02/10 05:22:39;;;;;;;57.03;25.42;;;;;;;4.51;57.31;103600.13;4834085;29;123398;-69
2023/02/10 05:25:08;;;;;;;53.05;25.95;;;;;;;4.49;57.03;103600.97;4832864;29;114865;-69
2023/02/10 05:27:36;;;;;;;56.70;25.48;;;;;;;4.47;57.44;103597.41;4835668;29;113723;-69
2023/02/10 05:30:06;;;;;;;69.82;27.35;;;;;;;4.46;57.23;103595.66;4829250;29;123096;-69
2023/02/10 05:32:33;;;;;;;73.45;25.98;;;;;;;4.43;57.37;103597.31;4836289;29;124604;-69
2023/02/10 05:35:00;;;;;;;88.30;26.20;;;;;;;4.42;57.29;103598.16;4829656;29;115061;-70
2023/02/10 05:37:28;;;;;;;77.85;24.70;;;;;;;4.41;57.29;103602.53;4829726;29;114939;-69
2023/02/10 05:39:55;;;;;;;84.40;24.80;;;;;;;4.39;57.56;103598.97;4833043;29;123376;-69
2023/02/10 05:42:22;;;;;;;121.65;26.05;;;;;;;4.38;57.46;103601.56;4837803;29;123913;-71
2023/02/10 05:44:49;;;;;;;69.90;24.42;;;;;;;4.39;57.62;103598.06;4829176;29;114216;-70
2023/02/10 05:47:17;;;;;;;73.43;24.90;;;;;;;4.39;57.85;103601.59;4838322;29;115365;-70
2023/02/10 05:49:45;;;;;;;101.70;25.02;;;;;;;4.40;57.86;103595.47;4832604;29;124038;-73
2023/02/10 05:52:12;;;;;;;91.95;24.63;;;;;;;4.41;57.75;103599.91;4833906;29;124416;-71
2023/02/10 05:54:40;;;;;;;82.72;23.85;;;;;;;4.42;57.81;103604.28;4819681;29;113044;-71
2023/02/10 05:57:07;;;;;;;81.63;25.27;;;;;;;4.43;58.06;103600.81;4830366;29;114131;-71
2023/02/10 05:59:35;;;;;;;96.75;25.90;;;;;;;4.44;58.05;103602.56;4832929;29;124607;-70
2023/02/10 06:02:02;;;;;;;85.30;25.30;;;;;;;4.46;58.29;103600.91;4832571;29;124305;-70
2023/02/10 06:04:30;;;;;;;100.15;27.83;;;;;;;4.48;58.40;103601.84;4818664;29;113476;-72
2023/02/10 06:06:57;;;;;;;101.80;27.00;;;;;;;4.53;58.36;103601.06;4833824;29;114059;-72
2023/02/10 06:09:26;;;;;;;90.40;27.08;;;;;;;4.55;58.25;103604.59;4834176;29;123888;-71
2023/02/10 06:11:53;;;;;;;93.57;28.13;;;;;;;4.57;58.57;103611.66;4831003;29;124154;-71
2023/02/10 06:14:20;;;;;;;84.53;26.15;;;;;;;4.59;58.36;103607.31;4834676;29;114013;-70
2023/02/10 06:16:48;;;;;;;105.95;27.77;;;;;;;4.60;58.58;103603.88;4830333;29;114167;-70
2023/02/10 06:19:15;;;;;;;101.07;26.25;;;;;;;4.63;58.28;103597.78;4834407;29;124517;-71
2023/02/10 06:21:45;;;;;;;84.85;26.67;;;;;;;4.65;58.63;103597.00;4835109;29;123845;-70
2023/02/10 06:24:12;;;;;;;97.35;26.60;;;;;;;4.67;58.66;103597.00;4831420;29;115263;-70
2023/02/10 06:26:40;;;;;;;93.78;28.38;;;;;;;4.71;58.59;103603.22;4835093;29;115138;-70
2023/02/10 06:29:07;;;;;;;69.80;26.17;;;;;;;4.73;58.66;103594.56;4832344;29;124043;-71
2023/02/10 06:31:34;;;;;;;122.55;29.63;;;;;;;4.77;58.67;103588.50;4827325;29;123971;-72
2023/02/10 06:34:02;;;;;;;123.90;28.05;;;;;;;4.80;58.94;103591.22;4832701;29;113498;-72
2023/02/10 06:36:29;;;;;;;103.35;26.95;;;;;;;4.84;58.83;103597.41;4828311;29;113983;-72
2023/02/10 06:38:56;;;;;;;101.28;28.38;;;;;;;4.85;58.70;103589.56;4818357;29;124901;-72
2023/02/10 06:41:25;;;;;;;89.68;27.55;;;;;;;4.88;59.13;103594.91;4832394;29;123955;-72
2023/02/10 06:43:52;;;;;;;145.40;29.55;;;;;;;4.92;59.25;103597.59;4829631;29;114242;-72
2023/02/10 06:46:19;;;;;;;122.40;27.52;;;;;;;4.94;58.90;103593.28;4824957;29;114286;-72
2023/02/10 06:48:46;;;;;;;104.60;27.33;;;;;;;4.97;58.89;103593.31;4831215;29;123947;-72
2023/02/10 06:51:14;;;;;;;76.88;26.90;;;;;;;5.01;59.22;103595.16;4831227;29;122944;-72
2023/02/10 06:53:42;;;;;;;130.77;29.17;;;;;;;5.04;59.16;103597.88;4829150;29;114457;-72
2023/02/10 06:56:10;;;;;;;96.18;28.83;;;;;;;5.07;59.34;103595.31;4831539;29;114641;-72
2023/02/10 06:58:41;;;;;;;109.75;28.90;;;;;;;5.10;59.16;103600.63;4833155;29;123101;-71
2023/02/10 07:01:10;;;;;;;103.47;28.23;;;;;;;5.13;59.40;103605.97;4829975;29;124760;-73
2023/02/10 07:03:37;;;;;;;141.20;29.67;;;;;;;5.18;59.33;103609.59;4835441;29;113030;-71
2023/02/10 07:06:05;;;;;;;98.78;28.40;;;;;;;5.22;59.21;103611.41;4837639;29;113961;-70
2023/02/10 07:08:32;;;;;;;97.00;28.58;;;;;;;5.25;59.09;103610.59;4836198;29;123973;-71
2023/02/10 07:11:00;;;;;;;116.22;29.70;;;;;;;5.29;59.30;103620.31;4835740;29;124368;-72
2023/02/10 07:13:27;;;;;;;109.00;29.15;;;;;;;5.31;59.53;103615.97;4835867;29;115897;-71
2023/02/10 07:15:56;;;;;;;103.32;27.83;;;;;;;5.34;59.63;103621.31;4813879;29;114764;-71
2023/02/10 07:18:23;;;;;;;124.60;30.42;;;;;;;5.37;59.25;103625.72;4831362;29;123979;-72
2023/02/10 07:20:50;;;;;;;102.60;24.90;;;;;;;5.40;59.62;103623.19;4830653;29;123650;-71
2023/02/10 07:23:18;;;;;;;116.28;25.15;;;;;;;5.42;59.41;103613.59;4814629;29;114930;-72
2023/02/10 07:26:04;;;;;;;114.80;24.40;;;;;;;5.46;59.54;103625.94;4831723;29;112967;-72
2023/02/10 07:28:33;;;;;;;85.47;24.92;;;;;;;5.48;59.61;103634.72;4818765;29;123492;-72
2023/02/10 07:31:00;;;;;;;80.38;24.27;;;;;;;5.52;59.11;103630.44;4828118;29;123831;-72
2023/02/10 07:33:28;;;;;;;103.15;24.48;;;;;;;5.54;59.64;103634.88;4831677;29;114431;-71
2023/02/10 07:35:59;;;;;;;148.55;24.95;;;;;;;5.56;59.62;103633.16;4831145;29;114059;-72
2023/02/10 07:38:27;;;;;;;133.18;25.27;;;;;;;5.60;59.53;103635.00;4826423;29;123551;-72
2023/02/10 07:40:54;;;;;;;128.93;29.85;;;;;;;5.62;59.43;103622.78;4824036;28;123971;-72
2023/02/10 07:43:21;;;;;;;109.25;28.50;;;;;;;5.68;59.65;103629.03;4828650;29;115104;-72
2023/02/10 07:45:58;;;;;;;111.07;28.88;;;;;;;5.71;59.76;103634.31;4810697;29;116577;-71
2023/02/10 07:48:26;;;;;;;120.70;30.75;;;;;;;5.77;59.83;103631.84;4822408;29;124322;-72
2023/02/10 07:50:53;;;;;;;106.30;29.08;;;;;;;5.80;59.77;103631.88;4843264;28;122206;-72
2023/02/10 07:53:21;;;;;;;89.68;30.35;;;;;;;5.83;59.77;103632.81;4820931;29;114214;-72
2023/02/10 07:55:48;;;;;;;94.28;29.63;;;;;;;5.86;59.73;103634.66;4822869;29;114023;-73
2023/02/10 07:58:16;;;;;;;97.28;29.85;;;;;;;5.88;60.03;103632.94;4818411;29;125628;-73
2023/02/10 08:00:44;;;;;;;92.07;30.02;;;;;;;5.93;60.12;103639.16;4820976;29;124058;-73
2023/02/10 08:03:14;;;;;;;92.78;30.02;;;;;;;5.98;60.26;103636.66;4825728;29;115316;-73
2023/02/10 08:05:41;;;;;;;102.15;29.33;;;;;;;6.03;60.31;103635.88;4828641;29;114879;-73
2023/02/10 08:08:09;;;;;;;107.07;30.10;;;;;;;6.07;60.13;103634.22;4825569;29;124216;-73
2023/02/10 08:10:41;;;;;;;97.28;29.35;;;;;;;6.11;59.87;103645.69;4825590;29;123509;-73
2023/02/10 08:13:09;;;;;;;92.47;30.70;;;;;;;6.15;60.07;103655.41;4829973;29;113516;-74
2023/02/10 08:15:36;;;;;;;105.03;31.23;;;;;;;6.16;60.21;103654.53;4820625;29;114421;-73
2023/02/10 08:18:03;;;;;;;107.22;31.15;;;;;;;6.19;60.37;103657.22;4813050;29;123097;-73
2023/02/10 08:20:31;;;;;;;99.50;30.77;;;;;;;6.21;60.31;103660.78;4831436;29;123557;-73
2023/02/10 08:22:59;;;;;;;90.60;30.85;;;;;;;6.24;60.15;103666.09;4826917;29;114376;-73
2023/02/10 08:25:27;;;;;;;92.10;29.17;;;;;;;6.27;60.11;103666.13;4808054;29;113157;-71
2023/02/10 08:27:54;;;;;;;93.13;29.48;;;;;;;6.30;60.33;103667.97;4830676;29;124164;-72
2023/02/10 08:30:22;;;;;;;94.03;30.20;;;;;;;6.31;60.35;103673.25;4829068;29;123651;-73
2023/02/10 08:32:49;;;;;;;95.05;29.40;;;;;;;6.36;60.33;103676.84;4837760;29;114880;-72
2023/02/10 08:35:17;;;;;;;92.03;29.77;;;;;;;6.38;60.36;103685.66;4829296;29;114677;-72
2023/02/10 08:37:44;;;;;;;96.65;29.60;;;;;;;6.42;60.31;103687.50;4843958;29;124820;-72
2023/02/10 08:40:11;;;;;;;87.90;29.63;;;;;;;6.46;60.10;103688.44;4825093;29;124467;-72
2023/02/10 08:42:39;;;;;;;90.28;27.58;;;;;;;6.48;60.34;103691.09;4829604;29;114360;-72
2023/02/10 08:45:06;;;;;;;82.78;26.75;;;;;;;6.50;60.21;103694.63;4831467;29;114758;-73
2023/02/10 08:47:34;;;;;;;84.78;27.90;;;;;;;6.51;60.32;103693.78;4828085;29;123960;-72
2023/02/10 08:50:02;;;;;;;88.03;27.77;;;;;;;6.52;60.11;103703.47;4838259;29;123742;-72
2023/02/10 08:52:30;;;;;;;81.82;28.73;;;;;;;6.53;60.24;103685.03;4824146;29;115641;-72
2023/02/10 08:54:59;;;;;;;76.97;24.95;;;;;;;6.55;60.30;103677.19;4823109;29;114117;-73
2023/02/10 08:57:27;;;;;;;75.80;24.38;;;;;;;6.57;59.93;103670.19;4826740;29;123973;-72
2023/02/10 08:59:54;;;;;;;74.45;23.10;;;;;;;6.59;60.13;103673.72;4839744;29;123839;-72
2023/02/10 09:02:21;;;;;;;79.35;25.63;;;;;;;6.62;59.90;103668.53;4831061;29;114887;-73
2023/02/10 09:04:48;;;;;;;84.95;25.48;;;;;;;6.66;60.50;103670.34;4821834;29;113818;-72
2023/02/10 09:07:30;;;;;;;81.53;24.98;;;;;;;6.71;60.39;103673.94;4829154;29;122834;-73
2023/02/10 09:09:57;;;;;;;76.45;24.10;;;;;;;6.78;60.20;103675.84;4837331;29;124019;-73
2023/02/10 09:12:24;;;;;;;76.03;24.92;;;;;;;6.87;60.15;103671.56;4822282;29;114237;-72
2023/02/10 09:14:51;;;;;;;85.18;27.60;;;;;;;6.90;60.33;103671.63;4824604;29;113848;-73
2023/02/10 09:17:19;;;;;;;84.60;27.63;;;;;;;6.94;60.06;103670.81;4825813;29;122935;-73
2023/02/10 09:19:46;;;;;;;84.60;27.20;;;;;;;6.95;60.35;103667.28;4835206;29;124099;-72
2023/02/10 09:22:13;;;;;;;76.60;27.95;;;;;;;7.00;60.25;103681.44;4805077;29;113204;-72
2023/02/10 09:24:46;;;;;;;82.88;28.17;;;;;;;7.06;60.18;103676.25;4837168;29;113827;-75
2023/02/10 09:27:15;;;;;;;82.95;27.45;;;;;;;7.12;60.24;103670.19;4831187;29;124816;-74
2023/02/10 09:29:42;;;;;;;81.57;27.75;;;;;;;7.18;60.42;103671.19;4831730;29;123074;-74
2023/02/10 09:32:10;;;;;;;82.28;27.55;;;;;;;7.23;60.36;103679.13;4841471;29;114359;-72
2023/02/10 09:34:39;;;;;;;83.25;27.48;;;;;;;7.26;60.21;103679.19;4834093;29;114032;-72
2023/02/10 09:37:08;;;;;;;92.35;29.60;;;;;;;7.29;60.21;103675.69;4824249;29;124198;-74
2023/02/10 09:39:35;;;;;;;85.05;29.45;;;;;;;7.34;60.25;103681.94;4854223;29;123926;-72
2023/02/10 09:42:27;;;;;;;76.65;28.17;;;;;;;7.37;60.46;103687.28;4843246;29;115296;-72
2023/02/10 09:45:13;;;;;;;79.93;27.95;;;;;;;7.42;60.32;103682.91;4816498;29;115249;-73
2023/02/10 09:48:05;;;;;;;72.60;25.98;;;;;;;7.46;60.58;103676.84;4829185;29;124019;-72
2023/02/10 09:50:52;;;;;;;72.65;25.52;;;;;;;7.49;60.23;103676.88;4827912;29;124010;-72
2023/02/10 09:53:23;;;;;;;76.20;26.85;;;;;;;7.53;60.07;103683.94;4835330;29;114183;-72
2023/02/10 09:55:57;;;;;;;71.18;25.80;;;;;;;7.57;60.23;103674.34;4820390;29;113010;-73
2023/02/10 09:58:37;;;;;;;71.03;26.02;;;;;;;7.60;60.19;103680.53;4843547;29;124023;-73
2023/02/10 10:01:11;;;;;;;74.68;25.58;;;;;;;7.64;59.94;103680.59;4840321;29;123903;-74
2023/02/10 10:03:44;;;;;;;68.47;24.38;;;;;;;7.67;59.80;103680.66;4835546;29;113351;-73
2023/02/10 10:06:38;;;;;;;66.53;24.35;;;;;;;7.70;59.98;103685.94;4850917;29;112353;-72
2023/02/10 10:09:09;;;;;;;69.10;24.65;;;;;;;7.71;59.89;103687.72;4853141;29;124351;-73
2023/02/10 10:11:43;;;;;;;68.30;26.13;;;;;;;7.73;59.76;103688.63;4850413;29;123973;-75
2023/02/10 10:14:23;;;;;;;68.95;24.00;;;;;;;7.74;59.86;103693.94;4846099;29;114196;-74
2023/02/10 10:17:15;;;;;;;67.05;24.17;;;;;;;7.77;59.86;103693.94;4852539;29;113738;-74
2023/02/10 10:20:01;;;;;;;63.78;24.05;;;;;;;7.83;59.82;103692.25;4842705;29;124539;-74
2023/02/10 10:22:53;;;;;;;60.97;23.00;;;;;;;7.87;59.86;103694.94;4842198;29;124605;-75
2023/02/10 10:25:29;;;;;;;66.18;23.55;;;;;;;7.92;59.89;103690.63;4836406;29;114096;-75
2023/02/10 10:28:25;;;;;;;61.50;23.23;;;;;;;8.01;59.92;103686.34;4822334;29;112957;-74
2023/02/10 10:30:56;;;;;;;61.60;23.38;;;;;;;8.09;59.85;103684.66;4837502;29;124026;-74
2023/02/10 10:33:35;;;;;;;66.22;23.60;;;;;;;8.18;60.06;103684.75;4838962;29;124022;-75
2023/02/10 10:36:03;;;;;;;58.17;22.95;;;;;;;8.27;59.82;103684.84;4850375;29;114411;-74
2023/02/10 10:38:36;;;;;;;69.93;24.30;;;;;;;8.35;60.12;103684.94;4857876;29;114154;-74
2023/02/10 10:41:11;;;;;;;62.55;23.77;;;;;;;8.46;59.97;103679.81;4851391;29;124590;-74
2023/02/10 10:43:48;;;;;;;60.17;22.92;;;;;;;8.52;59.97;103680.72;4838748;29;124363;-74
2023/02/10 10:46:18;;;;;;;55.72;21.95;;;;;;;8.59;59.67;103676.41;4833192;29;113412;-74
2023/02/10 10:48:46;;;;;;;62.33;22.60;;;;;;;8.67;59.71;103674.69;4831031;29;113318;-74
2023/02/10 10:51:14;;;;;;;54.90;21.38;;;;;;;8.76;59.92;103672.13;4864679;28;124212;-74
2023/02/10 10:53:47;;;;;;;55.75;21.48;;;;;;;8.86;59.44;103674.84;4827590;29;124546;-73
2023/02/10 10:56:23;;;;;;;59.88;22.13;;;;;;;8.96;59.27;103674.03;4835067;29;114514;-74
2023/02/10 10:58:52;;;;;;;57.85;21.33;;;;;;;9.06;59.36;103667.97;4835824;29;114302;-74
2023/02/10 11:01:39;;;;;;;57.15;20.45;;;;;;;9.16;59.14;103661.84;4848461;28;124428;-72
2023/02/10 11:04:12;;;;;;;50.90;19.98;;;;;;;9.27;58.83;103655.75;4845429;29;125198;-72
2023/02/10 11:06:42;;;;;;;48.55;20.77;;;;;;;9.36;58.92;103655.78;4833454;29;113324;-74
2023/02/10 11:09:30;;;;;;;50.47;19.63;;;;;;;9.47;58.99;103659.34;4847496;29;114363;-73
2023/02/10 11:12:20;;;;;;;53.67;20.63;;;;;;;9.59;58.87;103652.34;4843335;29;124190;-74
2023/02/10 11:14:53;;;;;;;48.80;18.83;;;;;;;9.69;58.72;103648.88;4852956;29;123546;-77
2023/02/10 11:17:31;;;;;;;47.00;19.00;;;;;;;9.77;58.43;103647.16;4843943;29;114229;-74
2023/02/10 11:20:01;;;;;;;48.38;18.95;;;;;;;9.84;58.26;103638.34;4855417;29;114401;-74
2023/02/10 11:22:29;;;;;;;44.50;16.45;;;;;;;9.90;58.24;103643.66;4829186;29;123083;-76
2023/02/10 11:25:05;;;;;;;37.75;16.10;;;;;;;10.00;57.98;103633.09;4835865;29;124398;-74
2023/02/10 11:27:34;;;;;;;41.90;16.05;;;;;;;10.11;57.76;103647.25;4820497;29;115084;-74